sensor_id;sensor_type;location;lat;lon;timestamp;temperature;humidity
35563;DHT22;21665;40.108;18.302;2023-11-21T00:01:03;12.10;99.90
35563;DHT22;21665;40.108;18.302;2023-11-21T00:03:31;12.10;99.90
35563;DHT22;21665;40.108;18.302;2023-11-21T00:05:57;12.10;99.90
35563;DHT22;21665;40.108;18.302;2023-11-21T00:08:27;12.10;99.90
35563;DHT22;21665;40.108;18.302;2023-11-21T00:10:54;12.20;99.90
35563;DHT22;21665;40.108;18.302;2023-11-21T00:13:21;12.20;99.90
35563;DHT22;21665;40.108;18.302;2023-11-21T00:15:48;12.30;99.90
35563;DHT22;21665;40.108;18.302;2023-11-21T00:18:15;12.30;99.90
35563;DHT22;21665;40.108;18.302;2023-11-21T00:20:42;12.30;99.90
35563;DHT22;21665;40.108;18.302;2023-11-21T00:23:09;12.30;99.90
35563;DHT22;21665;40.108;18.302;2023-11-21T00:25:35;12.30;99.90
35563;DHT22;21665;40.108;18.302;2023-11-21T00:28:01;12.20;99.90
35563;DHT22;21665;40.108;18.302;2023-11-21T00:30:29;12.20;99.90
35563;DHT22;21665;40.108;18.302;2023-11-21T00:32:57;12.30;99.90
35563;DHT22;21665;40.108;18.302;2023-11-21T00:35:25;12.30;99.90
35563;DHT22;21665;40.108;18.302;2023-11-21T00:37:52;12.30;99.90
35563;DHT22;21665;40.108;18.302;2023-11-21T00:40:18;12.40;99.90
35563;DHT22;21665;40.108;18.302;2023-11-21T00:42:48;12.40;99.90
35563;DHT22;21665;40.108;18.302;2023-11-21T00:45:15;12.40;99.90
35563;DHT22;21665;40.108;18.302;2023-11-21T00:47:44;12.40;99.90
35563;DHT22;21665;40.108;18.302;2023-11-21T00:50:11;12.50;99.90
35563;DHT22;21665;40.108;18.302;2023-11-21T00:52:37;12.50;99.90
35563;DHT22;21665;40.108;18.302;2023-11-21T00:55:05;12.40;99.90
35563;DHT22;21665;40.108;18.302;2023-11-21T00:57:34;12.40;99.90
35563;DHT22;21665;40.108;18.302;2023-11-21T01:00:00;12.40;99.90
35563;DHT22;21665;40.108;18.302;2023-11-21T01:02:27;12.60;99.90
35563;DHT22;21665;40.108;18.302;2023-11-21T01:04:53;12.70;99.90
35563;DHT22;21665;40.108;18.302;2023-11-21T01:07:20;12.70;99.90
35563;DHT22;21665;40.108;18.302;2023-11-21T01:09:46;12.80;99.90
35563;DHT22;21665;40.108;18.302;2023-11-21T01:12:12;12.80;99.90
35563;DHT22;21665;40.108;18.302;2023-11-21T01:14:40;12.60;99.90
35563;DHT22;21665;40.108;18.302;2023-11-21T01:17:06;12.70;99.90
35563;DHT22;21665;40.108;18.302;2023-11-21T01:19:33;12.80;99.90
35563;DHT22;21665;40.108;18.302;2023-11-21T01:22:00;12.90;99.90
35563;DHT22;21665;40.108;18.302;2023-11-21T01:24:26;12.80;99.90
35563;DHT22;21665;40.108;18.302;2023-11-21T01:26:53;12.60;99.90
35563;DHT22;21665;40.108;18.302;2023-11-21T01:29:19;12.50;99.90
35563;DHT22;21665;40.108;18.302;2023-11-21T01:31:45;12.50;99.90
35563;DHT22;21665;40.108;18.302;2023-11-21T01:34:13;12.60;99.90
35563;DHT22;21665;40.108;18.302;2023-11-21T01:36:46;12.60;99.90
35563;DHT22;21665;40.108;18.302;2023-11-21T01:39:12;12.70;99.90
35563;DHT22;21665;40.108;18.302;2023-11-21T01:41:42;12.80;99.90
35563;DHT22;21665;40.108;18.302;2023-11-21T01:44:12;12.70;99.90
35563;DHT22;21665;40.108;18.302;2023-11-21T01:46:39;12.70;99.90
35563;DHT22;21665;40.108;18.302;2023-11-21T01:49:06;12.70;99.90
35563;DHT22;21665;40.108;18.302;2023-11-21T01:51:33;12.50;99.90
35563;DHT22;21665;40.108;18.302;2023-11-21T01:54:02;12.40;99.90
35563;DHT22;21665;40.108;18.302;2023-11-21T01:56:31;12.40;99.90
35563;DHT22;21665;40.108;18.302;2023-11-21T01:58:58;12.40;99.90
35563;DHT22;21665;40.108;18.302;2023-11-21T02:01:25;12.40;99.90
35563;DHT22;21665;40.108;18.302;2023-11-21T02:03:53;12.30;99.90
35563;DHT22;21665;40.108;18.302;2023-11-21T02:06:19;12.30;99.90
35563;DHT22;21665;40.108;18.302;2023-11-21T02:08:46;12.20;99.90
35563;DHT22;21665;40.108;18.302;2023-11-21T02:11:12;12.30;99.90
35563;DHT22;21665;40.108;18.302;2023-11-21T02:13:40;12.30;99.90
35563;DHT22;21665;40.108;18.302;2023-11-21T02:16:10;12.30;99.90
35563;DHT22;21665;40.108;18.302;2023-11-21T02:18:39;12.40;99.90
35563;DHT22;21665;40.108;18.302;2023-11-21T02:21:06;12.20;99.90
35563;DHT22;21665;40.108;18.302;2023-11-21T02:23:33;12.10;99.90
35563;DHT22;21665;40.108;18.302;2023-11-21T02:25:59;12.10;99.90
35563;DHT22;21665;40.108;18.302;2023-11-21T02:28:30;12.00;99.90
35563;DHT22;21665;40.108;18.302;2023-11-21T02:30:56;12.00;99.90
35563;DHT22;21665;40.108;18.302;2023-11-21T02:33:25;11.90;99.90
35563;DHT22;21665;40.108;18.302;2023-11-21T02:35:52;11.90;99.90
35563;DHT22;21665;40.108;18.302;2023-11-21T02:38:23;11.90;99.90
35563;DHT22;21665;40.108;18.302;2023-11-21T02:40:50;11.90;99.90
35563;DHT22;21665;40.108;18.302;2023-11-21T02:43:17;12.00;99.90
35563;DHT22;21665;40.108;18.302;2023-11-21T02:45:43;11.90;99.90
35563;DHT22;21665;40.108;18.302;2023-11-21T02:48:10;11.90;99.90
35563;DHT22;21665;40.108;18.302;2023-11-21T02:50:36;11.70;99.90
35563;DHT22;21665;40.108;18.302;2023-11-21T02:53:06;11.80;99.90
35563;DHT22;21665;40.108;18.302;2023-11-21T02:55:33;11.80;99.90
35563;DHT22;21665;40.108;18.302;2023-11-21T02:58:02;11.90;99.90
35563;DHT22;21665;40.108;18.302;2023-11-21T03:00:30;12.00;99.90
35563;DHT22;21665;40.108;18.302;2023-11-21T03:02:56;12.00;99.90
35563;DHT22;21665;40.108;18.302;2023-11-21T03:05:23;12.00;99.90
35563;DHT22;21665;40.108;18.302;2023-11-21T03:07:49;12.10;99.90
35563;DHT22;21665;40.108;18.302;2023-11-21T03:10:16;12.20;99.90
35563;DHT22;21665;40.108;18.302;2023-11-21T03:12:42;12.20;99.90
35563;DHT22;21665;40.108;18.302;2023-11-21T03:15:10;12.30;99.90
35563;DHT22;21665;40.108;18.302;2023-11-21T03:17:37;12.20;99.90
35563;DHT22;21665;40.108;18.302;2023-11-21T03:20:04;12.30;99.90
35563;DHT22;21665;40.108;18.302;2023-11-21T03:22:30;12.30;99.90
35563;DHT22;21665;40.108;18.302;2023-11-21T03:24:57;12.40;99.90
35563;DHT22;21665;40.108;18.302;2023-11-21T03:27:27;12.40;99.90
35563;DHT22;21665;40.108;18.302;2023-11-21T03:29:54;12.30;99.90
35563;DHT22;21665;40.108;18.302;2023-11-21T03:32:20;12.40;99.90
35563;DHT22;21665;40.108;18.302;2023-11-21T03:34:54;12.40;99.90
35563;DHT22;21665;40.108;18.302;2023-11-21T03:37:22;12.40;99.90
35563;DHT22;21665;40.108;18.302;2023-11-21T03:39:48;12.20;99.90
35563;DHT22;21665;40.108;18.302;2023-11-21T03:42:15;12.20;99.90
35563;DHT22;21665;40.108;18.302;2023-11-21T03:44:42;12.20;99.90
35563;DHT22;21665;40.108;18.302;2023-11-21T03:47:09;12.20;99.90
35563;DHT22;21665;40.108;18.302;2023-11-21T03:49:35;12.20;99.90
35563;DHT22;21665;40.108;18.302;2023-11-21T03:52:05;12.30;99.90
35563;DHT22;21665;40.108;18.302;2023-11-21T03:54:33;12.30;99.90
35563;DHT22;21665;40.108;18.302;2023-11-21T03:57:00;12.30;99.90
35563;DHT22;21665;40.108;18.302;2023-11-21T03:59:27;12.30;99.90
35563;DHT22;21665;40.108;18.302;2023-11-21T04:01:56;12.30;99.90
35563;DHT22;21665;40.108;18.302;2023-11-21T04:04:23;12.30;99.90
35563;DHT22;21665;40.108;18.302;2023-11-21T04:06:49;12.30;99.90
35563;DHT22;21665;40.108;18.302;2023-11-21T04:09:17;12.30;99.90
35563;DHT22;21665;40.108;18.302;2023-11-21T04:11:44;12.20;99.90
35563;DHT22;21665;40.108;18.302;2023-11-21T04:14:14;12.20;99.90
35563;DHT22;21665;40.108;18.302;2023-11-21T04:16:41;12.20;99.90
35563;DHT22;21665;40.108;18.302;2023-11-21T04:19:08;12.10;99.90
35563;DHT22;21665;40.108;18.302;2023-11-21T04:21:41;12.10;99.90
35563;DHT22;21665;40.108;18.302;2023-11-21T04:24:08;12.10;99.90
35563;DHT22;21665;40.108;18.302;2023-11-21T04:26:34;12.10;99.90
35563;DHT22;21665;40.108;18.302;2023-11-21T04:29:01;12.10;99.90
35563;DHT22;21665;40.108;18.302;2023-11-21T04:31:27;12.00;99.90
35563;DHT22;21665;40.108;18.302;2023-11-21T04:33:53;12.10;99.90
35563;DHT22;21665;40.108;18.302;2023-11-21T04:36:20;12.10;99.90
35563;DHT22;21665;40.108;18.302;2023-11-21T04:38:46;12.10;99.90
35563;DHT22;21665;40.108;18.302;2023-11-21T04:41:13;12.10;99.90
35563;DHT22;21665;40.108;18.302;2023-11-21T04:43:39;12.00;99.90
35563;DHT22;21665;40.108;18.302;2023-11-21T04:46:06;12.00;99.90
35563;DHT22;21665;40.108;18.302;2023-11-21T04:48:33;11.90;99.90
35563;DHT22;21665;40.108;18.302;2023-11-21T04:50:59;11.90;99.90
35563;DHT22;21665;40.108;18.302;2023-11-21T04:53:26;11.80;99.90
35563;DHT22;21665;40.108;18.302;2023-11-21T04:55:52;11.80;99.90
35563;DHT22;21665;40.108;18.302;2023-11-21T04:58:19;11.80;99.90
35563;DHT22;21665;40.108;18.302;2023-11-21T05:00:47;11.80;99.90
35563;DHT22;21665;40.108;18.302;2023-11-21T05:03:13;11.80;99.90
35563;DHT22;21665;40.108;18.302;2023-11-21T05:05:39;12.00;99.90
35563;DHT22;21665;40.108;18.302;2023-11-21T05:08:06;12.00;99.90
35563;DHT22;21665;40.108;18.302;2023-11-21T05:10:32;12.10;99.90
35563;DHT22;21665;40.108;18.302;2023-11-21T05:12:59;12.10;99.90
35563;DHT22;21665;40.108;18.302;2023-11-21T05:15:25;12.00;99.90
35563;DHT22;21665;40.108;18.302;2023-11-21T05:17:53;12.00;99.90
35563;DHT22;21665;40.108;18.302;2023-11-21T05:20:20;12.10;99.90
35563;DHT22;21665;40.108;18.302;2023-11-21T05:22:50;12.10;99.90
35563;DHT22;21665;40.108;18.302;2023-11-21T05:25:17;12.10;99.90
35563;DHT22;21665;40.108;18.302;2023-11-21T05:27:48;12.20;99.90
35563;DHT22;21665;40.108;18.302;2023-11-21T05:30:14;12.30;99.90
35563;DHT22;21665;40.108;18.302;2023-11-21T05:32:41;12.40;99.90
35563;DHT22;21665;40.108;18.302;2023-11-21T05:35:12;12.50;99.90
35563;DHT22;21665;40.108;18.302;2023-11-21T05:37:43;12.50;99.90
35563;DHT22;21665;40.108;18.302;2023-11-21T05:40:10;12.60;99.90
35563;DHT22;21665;40.108;18.302;2023-11-21T05:42:36;12.60;99.90
35563;DHT22;21665;40.108;18.302;2023-11-21T05:45:06;12.60;99.90
35563;DHT22;21665;40.108;18.302;2023-11-21T05:47:46;12.60;99.90
35563;DHT22;21665;40.108;18.302;2023-11-21T05:50:15;12.80;99.90
35563;DHT22;21665;40.108;18.302;2023-11-21T05:52:42;12.90;99.90
35563;DHT22;21665;40.108;18.302;2023-11-21T05:55:09;13.00;99.90
35563;DHT22;21665;40.108;18.302;2023-11-21T05:57:41;13.00;99.90
35563;DHT22;21665;40.108;18.302;2023-11-21T06:00:11;13.20;99.90
35563;DHT22;21665;40.108;18.302;2023-11-21T06:02:41;13.30;99.90
35563;DHT22;21665;40.108;18.302;2023-11-21T14:39:30;18.60;99.90
35563;DHT22;21665;40.108;18.302;2023-11-21T14:42:35;18.50;99.90
35563;DHT22;21665;40.108;18.302;2023-11-21T14:45:09;18.50;99.90
35563;DHT22;21665;40.108;18.302;2023-11-21T14:47:39;18.40;99.90
35563;DHT22;21665;40.108;18.302;2023-11-21T14:50:11;18.40;99.90
35563;DHT22;21665;40.108;18.302;2023-11-21T14:52:56;18.30;99.90
35563;DHT22;21665;40.108;18.302;2023-11-21T14:55:26;18.30;99.90
35563;DHT22;21665;40.108;18.302;2023-11-21T14:58:01;18.20;99.90
35563;DHT22;21665;40.108;18.302;2023-11-21T15:00:33;18.20;99.90
35563;DHT22;21665;40.108;18.302;2023-11-21T15:03:03;18.20;99.90
35563;DHT22;21665;40.108;18.302;2023-11-21T15:05:31;18.20;99.90
35563;DHT22;21665;40.108;18.302;2023-11-21T15:07:58;18.10;99.90
35563;DHT22;21665;40.108;18.302;2023-11-21T15:10:40;18.10;99.90
35563;DHT22;21665;40.108;18.302;2023-11-21T15:13:22;18.00;99.90
35563;DHT22;21665;40.108;18.302;2023-11-21T15:15:55;18.00;99.90
35563;DHT22;21665;40.108;18.302;2023-11-21T15:18:23;18.00;99.90
35563;DHT22;21665;40.108;18.302;2023-11-21T15:20:51;18.00;99.90
35563;DHT22;21665;40.108;18.302;2023-11-21T15:23:17;17.90;99.90
35563;DHT22;21665;40.108;18.302;2023-11-21T15:25:45;17.90;99.90
35563;DHT22;21665;40.108;18.302;2023-11-21T15:28:12;17.80;99.90
35563;DHT22;21665;40.108;18.302;2023-11-21T15:30:39;17.80;99.90
35563;DHT22;21665;40.108;18.302;2023-11-21T15:33:05;17.80;99.90
35563;DHT22;21665;40.108;18.302;2023-11-21T15:35:43;17.80;99.90
35563;DHT22;21665;40.108;18.302;2023-11-21T15:38:11;17.80;99.90
35563;DHT22;21665;40.108;18.302;2023-11-21T15:40:39;17.80;99.90
35563;DHT22;21665;40.108;18.302;2023-11-21T15:43:06;17.80;99.90
35563;DHT22;21665;40.108;18.302;2023-11-21T15:45:33;17.80;99.90
35563;DHT22;21665;40.108;18.302;2023-11-21T15:48:00;17.80;99.90
35563;DHT22;21665;40.108;18.302;2023-11-21T15:50:27;17.70;99.90
35563;DHT22;21665;40.108;18.302;2023-11-21T15:52:58;17.70;99.90
35563;DHT22;21665;40.108;18.302;2023-11-21T15:55:25;17.70;99.90
35563;DHT22;21665;40.108;18.302;2023-11-21T15:57:51;17.70;99.90
35563;DHT22;21665;40.108;18.302;2023-11-21T16:00:18;17.70;99.90
35563;DHT22;21665;40.108;18.302;2023-11-21T16:02:47;17.70;99.90
35563;DHT22;21665;40.108;18.302;2023-11-21T16:05:14;17.70;99.90
35563;DHT22;21665;40.108;18.302;2023-11-21T16:07:41;17.70;99.90
35563;DHT22;21665;40.108;18.302;2023-11-21T16:10:08;17.70;99.90
35563;DHT22;21665;40.108;18.302;2023-11-21T16:12:41;17.70;99.90
35563;DHT22;21665;40.108;18.302;2023-11-21T16:15:11;17.70;99.90
35563;DHT22;21665;40.108;18.302;2023-11-21T16:17:38;17.70;99.90
35563;DHT22;21665;40.108;18.302;2023-11-21T16:20:05;17.70;99.90
35563;DHT22;21665;40.108;18.302;2023-11-21T16:22:37;17.70;99.90
35563;DHT22;21665;40.108;18.302;2023-11-21T16:25:04;17.70;99.90
35563;DHT22;21665;40.108;18.302;2023-11-21T16:27:33;17.60;99.90
35563;DHT22;21665;40.108;18.302;2023-11-21T16:29:59;17.60;99.90
35563;DHT22;21665;40.108;18.302;2023-11-21T16:32:26;17.60;99.90
35563;DHT22;21665;40.108;18.302;2023-11-21T16:34:53;17.60;99.90
35563;DHT22;21665;40.108;18.302;2023-11-21T16:37:21;17.60;99.90
35563;DHT22;21665;40.108;18.302;2023-11-21T16:39:47;17.60;99.90
35563;DHT22;21665;40.108;18.302;2023-11-21T16:42:14;17.60;99.90
35563;DHT22;21665;40.108;18.302;2023-11-21T16:44:41;17.60;99.90
35563;DHT22;21665;40.108;18.302;2023-11-21T16:47:08;17.60;99.90
35563;DHT22;21665;40.108;18.302;2023-11-21T16:49:36;17.50;99.90
35563;DHT22;21665;40.108;18.302;2023-11-21T16:52:06;17.60;99.90
35563;DHT22;21665;40.108;18.302;2023-11-21T16:54:35;17.60;99.90
35563;DHT22;21665;40.108;18.302;2023-11-21T16:57:02;17.50;99.90
35563;DHT22;21665;40.108;18.302;2023-11-21T16:59:29;17.50;99.90
35563;DHT22;21665;40.108;18.302;2023-11-21T17:01:57;17.50;99.90
35563;DHT22;21665;40.108;18.302;2023-11-21T17:04:32;17.60;99.90
35563;DHT22;21665;40.108;18.302;2023-11-21T17:07:16;17.60;99.90
35563;DHT22;21665;40.108;18.302;2023-11-21T17:09:59;17.60;99.90
35563;DHT22;21665;40.108;18.302;2023-11-21T17:12:26;17.60;99.90
35563;DHT22;21665;40.108;18.302;2023-11-21T17:14:53;17.60;99.90
35563;DHT22;21665;40.108;18.302;2023-11-21T17:17:20;17.60;99.90
35563;DHT22;21665;40.108;18.302;2023-11-21T17:19:46;17.60;99.90
35563;DHT22;21665;40.108;18.302;2023-11-21T17:22:14;17.60;99.90
35563;DHT22;21665;40.108;18.302;2023-11-21T17:24:55;17.60;99.90
35563;DHT22;21665;40.108;18.302;2023-11-21T17:27:54;17.60;99.90
35563;DHT22;21665;40.108;18.302;2023-11-21T17:30:22;17.60;99.90
35563;DHT22;21665;40.108;18.302;2023-11-21T17:32:48;17.60;99.90
35563;DHT22;21665;40.108;18.302;2023-11-21T17:35:15;17.70;99.90
35563;DHT22;21665;40.108;18.302;2023-11-21T17:37:58;17.70;99.90
35563;DHT22;21665;40.108;18.302;2023-11-21T17:40:44;17.60;99.90
35563;DHT22;21665;40.108;18.302;2023-11-21T17:43:26;17.70;99.90
35563;DHT22;21665;40.108;18.302;2023-11-21T17:46:35;17.70;99.90
35563;DHT22;21665;40.108;18.302;2023-11-21T17:49:02;17.80;99.90
35563;DHT22;21665;40.108;18.302;2023-11-21T17:51:29;17.80;99.90
35563;DHT22;21665;40.108;18.302;2023-11-21T17:53:56;17.80;99.90
35563;DHT22;21665;40.108;18.302;2023-11-21T17:56:27;17.80;99.90
35563;DHT22;21665;40.108;18.302;2023-11-21T17:58:54;17.90;99.90
35563;DHT22;21665;40.108;18.302;2023-11-21T18:01:23;17.90;99.90
35563;DHT22;21665;40.108;18.302;2023-11-21T18:03:50;17.90;99.90
35563;DHT22;21665;40.108;18.302;2023-11-21T18:06:17;17.90;99.90
35563;DHT22;21665;40.108;18.302;2023-11-21T18:08:43;17.90;99.90
35563;DHT22;21665;40.108;18.302;2023-11-21T18:11:10;17.90;99.90
35563;DHT22;21665;40.108;18.302;2023-11-21T18:13:37;17.90;99.90
35563;DHT22;21665;40.108;18.302;2023-11-21T18:16:04;17.90;99.90
35563;DHT22;21665;40.108;18.302;2023-11-21T18:18:32;17.90;99.90
35563;DHT22;21665;40.108;18.302;2023-11-21T18:21:15;17.90;99.90
35563;DHT22;21665;40.108;18.302;2023-11-21T18:23:49;18.00;99.90
35563;DHT22;21665;40.108;18.302;2023-11-21T18:26:17;18.00;99.90
35563;DHT22;21665;40.108;18.302;2023-11-21T18:28:43;18.00;99.90
35563;DHT22;21665;40.108;18.302;2023-11-21T18:31:10;18.00;99.90
35563;DHT22;21665;40.108;18.302;2023-11-21T18:33:36;18.10;99.90
35563;DHT22;21665;40.108;18.302;2023-11-21T18:36:07;18.10;99.90
35563;DHT22;21665;40.108;18.302;2023-11-21T18:38:33;18.10;99.90
35563;DHT22;21665;40.108;18.302;2023-11-21T18:41:02;18.20;99.90
35563;DHT22;21665;40.108;18.302;2023-11-21T18:43:29;18.20;99.90
35563;DHT22;21665;40.108;18.302;2023-11-21T18:45:55;18.20;99.90
35563;DHT22;21665;40.108;18.302;2023-11-21T18:48:22;18.30;99.90
35563;DHT22;21665;40.108;18.302;2023-11-21T18:50:48;18.20;99.90
35563;DHT22;21665;40.108;18.302;2023-11-21T18:53:17;18.20;99.90
35563;DHT22;21665;40.108;18.302;2023-11-21T18:55:44;18.20;99.90
35563;DHT22;21665;40.108;18.302;2023-11-21T18:58:10;18.20;99.90
35563;DHT22;21665;40.108;18.302;2023-11-21T19:00:37;18.20;99.90
35563;DHT22;21665;40.108;18.302;2023-11-21T19:03:03;18.30;99.90
35563;DHT22;21665;40.108;18.302;2023-11-21T19:05:30;18.20;99.90
35563;DHT22;21665;40.108;18.302;2023-11-21T19:07:57;18.20;99.90
35563;DHT22;21665;40.108;18.302;2023-11-21T19:10:24;18.20;99.90
35563;DHT22;21665;40.108;18.302;2023-11-21T19:12:58;18.30;99.90
35563;DHT22;21665;40.108;18.302;2023-11-21T19:15:25;18.20;99.90
35563;DHT22;21665;40.108;18.302;2023-11-21T19:17:53;18.30;99.90
35563;DHT22;21665;40.108;18.302;2023-11-21T19:20:20;18.20;99.90
35563;DHT22;21665;40.108;18.302;2023-11-21T19:22:49;18.20;99.90
35563;DHT22;21665;40.108;18.302;2023-11-21T19:25:16;18.20;99.90
35563;DHT22;21665;40.108;18.302;2023-11-21T19:28:01;18.20;99.90
35563;DHT22;21665;40.108;18.302;2023-11-21T19:30:37;18.20;99.90
35563;DHT22;21665;40.108;18.302;2023-11-21T19:33:06;18.20;99.90
35563;DHT22;21665;40.108;18.302;2023-11-21T19:35:33;18.30;99.90
35563;DHT22;21665;40.108;18.302;2023-11-21T19:38:05;18.30;99.90
35563;DHT22;21665;40.108;18.302;2023-11-21T19:40:31;18.30;99.90
35563;DHT22;21665;40.108;18.302;2023-11-21T19:43:00;18.30;99.90
35563;DHT22;21665;40.108;18.302;2023-11-21T19:45:26;18.30;99.90
35563;DHT22;21665;40.108;18.302;2023-11-21T19:47:55;18.30;99.90
35563;DHT22;21665;40.108;18.302;2023-11-21T19:50:21;18.20;99.90
35563;DHT22;21665;40.108;18.302;2023-11-21T19:52:48;18.20;99.90
35563;DHT22;21665;40.108;18.302;2023-11-21T19:55:15;18.30;99.90
35563;DHT22;21665;40.108;18.302;2023-11-21T19:57:42;18.20;99.90
35563;DHT22;21665;40.108;18.302;2023-11-21T20:00:09;18.30;99.90
35563;DHT22;21665;40.108;18.302;2023-11-21T20:02:41;18.30;99.90
35563;DHT22;21665;40.108;18.302;2023-11-21T20:05:08;18.20;99.90
35563;DHT22;21665;40.108;18.302;2023-11-21T20:07:35;18.20;99.90
35563;DHT22;21665;40.108;18.302;2023-11-21T20:10:01;18.20;99.90
35563;DHT22;21665;40.108;18.302;2023-11-21T20:12:28;18.20;99.90
35563;DHT22;21665;40.108;18.302;2023-11-21T20:14:55;18.20;99.90
35563;DHT22;21665;40.108;18.302;2023-11-21T20:17:22;18.10;99.90
35563;DHT22;21665;40.108;18.302;2023-11-21T20:19:49;18.10;99.90
35563;DHT22;21665;40.108;18.302;2023-11-21T20:22:16;18.10;99.90
35563;DHT22;21665;40.108;18.302;2023-11-21T20:24:44;18.00;99.90
35563;DHT22;21665;40.108;18.302;2023-11-21T20:27:10;18.00;99.90
35563;DHT22;21665;40.108;18.302;2023-11-21T20:29:37;18.00;99.90
35563;DHT22;21665;40.108;18.302;2023-11-21T20:32:06;18.00;99.90
35563;DHT22;21665;40.108;18.302;2023-11-21T20:34:33;18.00;99.90
35563;DHT22;21665;40.108;18.302;2023-11-21T20:36:59;18.00;99.90
35563;DHT22;21665;40.108;18.302;2023-11-21T20:39:26;18.00;99.90
35563;DHT22;21665;40.108;18.302;2023-11-21T20:41:52;17.90;99.90
35563;DHT22;21665;40.108;18.302;2023-11-21T20:44:19;18.00;99.90
35563;DHT22;21665;40.108;18.302;2023-11-21T20:46:47;17.90;99.90
35563;DHT22;21665;40.108;18.302;2023-11-21T20:49:14;17.90;99.90
35563;DHT22;21665;40.108;18.302;2023-11-21T20:51:41;17.90;99.90
35563;DHT22;21665;40.108;18.302;2023-11-21T20:54:08;17.90;99.90
35563;DHT22;21665;40.108;18.302;2023-11-21T20:56:35;17.90;99.90
35563;DHT22;21665;40.108;18.302;2023-11-21T20:59:01;17.80;99.90
35563;DHT22;21665;40.108;18.302;2023-11-21T21:01:34;17.80;99.90
35563;DHT22;21665;40.108;18.302;2023-11-21T21:04:01;17.80;99.90
35563;DHT22;21665;40.108;18.302;2023-11-21T21:06:29;17.80;99.90
35563;DHT22;21665;40.108;18.302;2023-11-21T21:08:56;17.80;99.90
35563;DHT22;21665;40.108;18.302;2023-11-21T21:11:25;17.80;99.90
35563;DHT22;21665;40.108;18.302;2023-11-21T21:13:52;17.80;99.90
35563;DHT22;21665;40.108;18.302;2023-11-21T21:16:22;17.90;99.90
35563;DHT22;21665;40.108;18.302;2023-11-21T21:18:55;17.90;99.90
35563;DHT22;21665;40.108;18.302;2023-11-21T21:21:23;17.90;99.90
35563;DHT22;21665;40.108;18.302;2023-11-21T21:23:50;17.90;99.90
35563;DHT22;21665;40.108;18.302;2023-11-21T21:26:17;17.80;99.90
35563;DHT22;21665;40.108;18.302;2023-11-21T21:28:46;17.80;99.90
35563;DHT22;21665;40.108;18.302;2023-11-21T21:31:16;17.80;99.90
35563;DHT22;21665;40.108;18.302;2023-11-21T21:33:44;17.80;99.90
35563;DHT22;21665;40.108;18.302;2023-11-21T21:36:11;17.80;99.90
35563;DHT22;21665;40.108;18.302;2023-11-21T21:38:38;17.80;99.90
35563;DHT22;21665;40.108;18.302;2023-11-21T21:41:08;17.80;99.90
35563;DHT22;21665;40.108;18.302;2023-11-21T21:43:37;17.80;99.90
35563;DHT22;21665;40.108;18.302;2023-11-21T21:46:06;17.80;99.90
35563;DHT22;21665;40.108;18.302;2023-11-21T21:48:34;17.80;99.90
35563;DHT22;21665;40.108;18.302;2023-11-21T21:51:03;17.80;99.90
35563;DHT22;21665;40.108;18.302;2023-11-21T21:53:30;17.80;99.90
35563;DHT22;21665;40.108;18.302;2023-11-21T21:55:56;17.80;99.90
35563;DHT22;21665;40.108;18.302;2023-11-21T21:58:23;17.80;99.90
35563;DHT22;21665;40.108;18.302;2023-11-21T22:00:49;17.80;99.90
35563;DHT22;21665;40.108;18.302;2023-11-21T22:03:16;17.80;99.90
35563;DHT22;21665;40.108;18.302;2023-11-21T22:05:42;17.80;99.90
35563;DHT22;21665;40.108;18.302;2023-11-21T22:08:09;17.80;99.90
35563;DHT22;21665;40.108;18.302;2023-11-21T22:10:35;17.80;99.90
35563;DHT22;21665;40.108;18.302;2023-11-21T22:13:02;17.80;99.90
35563;DHT22;21665;40.108;18.302;2023-11-21T22:15:28;17.80;99.90
35563;DHT22;21665;40.108;18.302;2023-11-21T22:17:54;17.80;99.90
35563;DHT22;21665;40.108;18.302;2023-11-21T22:20:21;17.80;99.90
35563;DHT22;21665;40.108;18.302;2023-11-21T22:22:48;17.80;99.90
35563;DHT22;21665;40.108;18.302;2023-11-21T22:25:14;17.80;99.90
35563;DHT22;21665;40.108;18.302;2023-11-21T22:27:41;17.80;99.90
35563;DHT22;21665;40.108;18.302;2023-11-21T22:30:08;17.80;99.90
35563;DHT22;21665;40.108;18.302;2023-11-21T22:32:36;17.80;99.90
35563;DHT22;21665;40.108;18.302;2023-11-21T22:35:02;17.70;99.90
35563;DHT22;21665;40.108;18.302;2023-11-21T22:37:29;17.80;99.90
35563;DHT22;21665;40.108;18.302;2023-11-21T22:39:55;17.70;99.90
35563;DHT22;21665;40.108;18.302;2023-11-21T22:42:21;17.70;99.90
35563;DHT22;21665;40.108;18.302;2023-11-21T22:44:51;17.70;99.90
35563;DHT22;21665;40.108;18.302;2023-11-21T22:47:18;17.70;99.90
35563;DHT22;21665;40.108;18.302;2023-11-21T22:49:47;17.70;99.90
35563;DHT22;21665;40.108;18.302;2023-11-21T22:52:14;17.70;99.90
35563;DHT22;21665;40.108;18.302;2023-11-21T22:54:40;17.70;99.90
35563;DHT22;21665;40.108;18.302;2023-11-21T22:57:07;17.70;99.90
35563;DHT22;21665;40.108;18.302;2023-11-21T22:59:33;17.70;99.90
35563;DHT22;21665;40.108;18.302;2023-11-21T23:01:59;17.70;99.90
35563;DHT22;21665;40.108;18.302;2023-11-21T23:04:26;17.70;99.90
35563;DHT22;21665;40.108;18.302;2023-11-21T23:06:53;17.80;99.90
35563;DHT22;21665;40.108;18.302;2023-11-21T23:09:20;17.70;99.90
35563;DHT22;21665;40.108;18.302;2023-11-21T23:11:48;17.70;99.90
35563;DHT22;21665;40.108;18.302;2023-11-21T23:14:15;17.70;99.90
35563;DHT22;21665;40.108;18.302;2023-11-21T23:16:42;17.80;99.90
35563;DHT22;21665;40.108;18.302;2023-11-21T23:19:08;17.80;99.90
35563;DHT22;21665;40.108;18.302;2023-11-21T23:21:43;17.80;99.90
35563;DHT22;21665;40.108;18.302;2023-11-21T23:24:09;17.80;99.90
35563;DHT22;21665;40.108;18.302;2023-11-21T23:26:38;17.80;99.90
35563;DHT22;21665;40.108;18.302;2023-11-21T23:29:07;17.80;99.90
35563;DHT22;21665;40.108;18.302;2023-11-21T23:31:33;17.80;99.90
35563;DHT22;21665;40.108;18.302;2023-11-21T23:34:00;17.90;99.90
35563;DHT22;21665;40.108;18.302;2023-11-21T23:36:27;17.90;99.90
35563;DHT22;21665;40.108;18.302;2023-11-21T23:38:53;17.90;99.90
35563;DHT22;21665;40.108;18.302;2023-11-21T23:41:20;17.90;99.90
35563;DHT22;21665;40.108;18.302;2023-11-21T23:43:49;17.90;99.90
35563;DHT22;21665;40.108;18.302;2023-11-21T23:46:16;17.80;99.90
35563;DHT22;21665;40.108;18.302;2023-11-21T23:48:43;17.80;99.90
35563;DHT22;21665;40.108;18.302;2023-11-21T23:51:10;17.70;99.90
35563;DHT22;21665;40.108;18.302;2023-11-21T23:53:37;17.70;99.90
35563;DHT22;21665;40.108;18.302;2023-11-21T23:56:04;17.70;99.90